Time;durP1;ratioP1;P1;durP2;ratioP2;P2;SDS_P1;SDS_P2;PMS_P1;PMS_P2;Temp;Humidity;BMP_temperature;BMP_pressure;BME280_temperature;BME280_humidity;BME280_pressure;Samples;Min_cycle;Max_cycle;Signal;HPM_P1;HPM_P2
2022/04/17 00:00:10;;;;;;;4.90;3.08;;;8.40;90.50;;;;;;5013127;28;20014;-73
2022/04/17 00:02:37;;;;;;;6.43;2.97;;;8.40;89.90;;;;;;5012938;28;20084;-72
2022/04/17 00:05:04;;;;;;;6.60;3.00;;;8.40;89.90;;;;;;5013206;28;20445;-72
2022/04/17 00:07:34;;;;;;;6.65;3.08;;;8.40;88.60;;;;;;5013068;28;20044;-73
2022/04/17 00:10:00;;;;;;;7.13;3.47;;;8.30;87.80;;;;;;5010298;28;20030;-72
2022/04/17 00:12:26;;;;;;;8.85;3.15;;;8.40;89.00;;;;;;5012899;28;20026;-74
2022/04/17 00:14:57;;;;;;;9.57;2.67;;;8.40;88.60;;;;;;5013069;28;20037;-74
2022/04/17 00:17:23;;;;;;;11.35;3.70;;;8.30;87.50;;;;;;5013087;28;20038;-74
2022/04/17 00:19:49;;;;;;;8.75;3.05;;;8.30;88.40;;;;;;5012964;28;20022;-73
2022/04/17 00:22:15;;;;;;;10.65;3.97;;;8.30;88.40;;;;;;5011396;28;20117;-73
2022/04/17 00:24:42;;;;;;;6.15;2.85;;;8.30;88.60;;;;;;5012718;28;20100;-72
2022/04/17 00:27:08;;;;;;;4.43;2.55;;;8.10;87.50;;;;;;5011366;28;20362;-72
2022/04/17 00:29:35;;;;;;;5.97;2.25;;;8.20;89.40;;;;;;5012365;28;20030;-73
2022/04/17 00:32:01;;;;;;;5.32;2.38;;;8.20;89.40;;;;;;5012422;28;20029;-72
2022/04/17 00:34:29;;;;;;;7.82;4.03;;;8.20;87.20;;;;;;5012178;28;20092;-73
2022/04/17 00:36:59;;;;;;;7.20;3.45;;;8.20;86.30;;;;;;5012150;28;20032;-72
2022/04/17 00:39:26;;;;;;;7.63;3.08;;;8.20;87.90;;;;;;5012257;28;20465;-72
2022/04/17 00:41:53;;;;;;;7.22;3.33;;;8.20;87.20;;;;;;5012696;28;20022;-72
2022/04/17 00:44:20;;;;;;;3.28;2.40;;;8.20;87.30;;;;;;5010419;28;20129;-72
2022/04/17 00:46:45;;;;;;;7.28;3.25;;;8.20;87.20;;;;;;5012385;28;20025;-72
2022/04/17 00:49:11;;;;;;;5.88;3.03;;;8.20;85.80;;;;;;5012133;28;20030;-72
2022/04/17 00:51:37;;;;;;;6.15;2.45;;;8.10;83.90;;;;;;5012187;28;20546;-73
2022/04/17 00:54:06;;;;;;;5.63;3.15;;;8.10;84.90;;;;;;5012323;28;20084;-72
2022/04/17 00:56:32;;;;;;;4.70;2.75;;;8.10;84.00;;;;;;5012291;28;20814;-73
2022/04/17 00:58:59;;;;;;;6.10;2.72;;;8.10;84.80;;;;;;5012081;28;20037;-71
2022/04/17 01:01:25;;;;;;;6.28;3.25;;;8.10;84.30;;;;;;5012236;28;20018;-73
2022/04/17 01:03:51;;;;;;;4.72;2.25;;;8.10;84.10;;;;;;5012221;28;20506;-74
2022/04/17 01:06:17;;;;;;;4.32;2.75;;;8.00;82.90;;;;;;5012066;28;20022;-73
2022/04/17 01:08:43;;;;;;;3.17;2.30;;;8.00;82.60;;;;;;5011882;28;20088;-73
2022/04/17 01:11:11;;;;;;;5.40;2.13;;;7.90;81.50;;;;;;5011838;28;20049;-73
2022/04/17 01:13:42;;;;;;;6.85;3.08;;;7.90;80.80;;;;;;5012067;28;20469;-73
2022/04/17 01:16:08;;;;;;;4.13;2.17;;;7.90;82.40;;;;;;5011973;28;20026;-73
2022/04/17 01:19:02;;;;;;;2.53;1.80;;;7.90;81.60;;;;;;5011986;28;20022;-74
2022/04/17 01:21:30;;;;;;;2.83;1.75;;;7.80;80.30;;;;;;5009981;28;20036;-72
2022/04/17 01:26:56;;;;;;;3.80;1.83;;;7.80;79.50;;;;;;5011721;28;20533;-73
2022/04/17 01:29:22;;;;;;;6.00;2.40;;;7.70;80.50;;;;;;5011541;28;20538;-73
2022/04/17 01:31:48;;;;;;;4.40;1.90;;;7.70;79.40;;;;;;5011710;28;20482;-72
2022/04/17 01:34:17;;;;;;;4.55;2.15;;;7.70;79.20;;;;;;5009591;28;20021;-73
2022/04/17 01:36:47;;;;;;;4.50;2.08;;;7.70;78.90;;;;;;5011540;28;20026;-73
2022/04/17 01:39:13;;;;;;;5.90;3.00;;;7.70;78.60;;;;;;5011410;28;20396;-73
2022/04/17 01:41:39;;;;;;;3.95;2.10;;;7.60;78.80;;;;;;5011427;28;20093;-68
2022/04/17 01:44:06;;;;;;;3.88;1.77;;;7.60;78.70;;;;;;5011428;28;20421;-72
2022/04/17 01:46:33;;;;;;;3.10;1.85;;;7.60;78.60;;;;;;5011510;28;20017;-72
2022/04/17 01:48:59;;;;;;;2.75;2.13;;;7.50;78.10;;;;;;5011218;28;20374;-72
2022/04/17 01:51:25;;;;;;;3.75;1.95;;;7.50;78.30;;;;;;5010290;28;20041;-73
2022/04/17 01:53:51;;;;;;;2.38;1.80;;;7.50;78.80;;;;;;5011266;28;20036;-73
2022/04/17 01:56:17;;;;;;;3.50;1.83;;;7.50;78.80;;;;;;5011392;28;20022;-72
2022/04/17 01:58:42;;;;;;;2.55;2.03;;;7.40;78.40;;;;;;5011035;28;20049;-73
2022/04/17 02:01:11;;;;;;;4.05;2.10;;;7.40;79.30;;;;;;5010992;28;20022;-72
2022/04/17 02:03:37;;;;;;;2.47;1.83;;;7.40;79.10;;;;;;5011378;28;20379;-73
2022/04/17 02:06:03;;;;;;;2.90;1.88;;;7.40;79.00;;;;;;5009231;28;20029;-72
2022/04/17 02:08:29;;;;;;;2.85;1.90;;;7.40;78.60;;;;;;5011106;28;20404;-72
2022/04/17 02:10:56;;;;;;;3.42;2.40;;;7.40;79.00;;;;;;5010906;28;20101;-72
2022/04/17 02:13:24;;;;;;;4.38;2.05;;;7.40;79.00;;;;;;5011077;28;20040;-72
2022/04/17 02:15:53;;;;;;;3.97;2.42;;;7.30;78.70;;;;;;5010844;28;20018;-73
2022/04/17 02:18:20;;;;;;;4.50;2.33;;;7.30;79.60;;;;;;5010944;28;20022;-72
2022/04/17 02:20:47;;;;;;;3.38;1.88;;;7.30;79.50;;;;;;5010969;28;20025;-73
2022/04/17 02:23:14;;;;;;;4.43;2.78;;;7.30;80.00;;;;;;5010699;28;20029;-72
2022/04/17 02:25:40;;;;;;;3.70;2.38;;;7.30;79.90;;;;;;5010946;28;20036;-72
2022/04/17 02:28:07;;;;;;;5.82;2.15;;;7.30;79.40;;;;;;5010856;28;20034;-72
2022/04/17 02:30:33;;;;;;;4.53;2.55;;;7.30;80.00;;;;;;5010837;28;20026;-72
2022/04/17 02:32:59;;;;;;;5.22;2.40;;;7.20;80.20;;;;;;5013535;28;20525;-73
2022/04/17 02:35:24;;;;;;;7.22;3.17;;;7.20;80.90;;;;;;5014818;28;20018;-73
2022/04/17 02:37:50;;;;;;;4.55;2.30;;;7.20;81.70;;;;;;5014779;28;20108;-73
2022/04/17 02:40:16;;;;;;;4.43;2.25;;;7.20;81.10;;;;;;5014282;28;20033;-72
2022/04/17 02:42:43;;;;;;;5.28;2.92;;;7.20;80.90;;;;;;5014927;28;20022;-73
2022/04/17 02:45:09;;;;;;;6.00;2.40;;;7.10;80.90;;;;;;5014722;28;20041;-73
2022/04/17 02:47:44;;;;;;;4.43;2.65;;;7.10;80.90;;;;;;5014451;28;20038;-72
2022/04/17 02:50:11;;;;;;;5.03;2.30;;;7.10;81.30;;;;;;5014344;28;20141;-71
2022/04/17 02:52:37;;;;;;;4.95;2.70;;;7.10;81.50;;;;;;5014499;28;20022;-72
2022/04/17 02:55:04;;;;;;;3.42;1.77;;;7.00;80.60;;;;;;5014412;28;20029;-72
2022/04/17 02:57:30;;;;;;;6.35;2.53;;;7.00;80.90;;;;;;5012651;28;20076;-73
2022/04/17 02:59:57;;;;;;;6.38;2.55;;;7.00;81.20;;;;;;5014464;28;20030;-73
2022/04/17 03:07:53;;;;;;;3.55;2.10;;;6.90;80.50;;;;;;5012897;28;20037;-73
2022/04/17 03:10:19;;;;;;;6.95;2.47;;;6.90;80.90;;;;;;5014102;28;20092;-73
2022/04/17 03:12:45;;;;;;;5.10;2.65;;;6.90;80.70;;;;;;5013877;28;20109;-73
2022/04/17 03:15:11;;;;;;;5.18;2.55;;;6.80;81.00;;;;;;5014190;28;20444;-71
2022/04/17 03:17:37;;;;;;;3.22;1.98;;;6.80;81.30;;;;;;5014445;28;20377;-73
2022/04/17 03:20:04;;;;;;;2.78;2.00;;;6.80;81.80;;;;;;5013864;28;20029;-72
2022/04/17 03:22:32;;;;;;;3.70;2.25;;;6.80;81.40;;;;;;5014025;28;20076;-74
2022/04/17 03:25:00;;;;;;;7.80;2.25;;;6.80;81.30;;;;;;5013681;28;20029;-74
2022/04/17 03:27:28;;;;;;;3.53;2.25;;;6.80;82.80;;;;;;5013813;28;20110;-74
2022/04/17 03:29:55;;;;;;;5.50;2.60;;;6.80;82.80;;;;;;5013673;28;20041;-73
2022/04/17 03:32:21;;;;;;;5.03;2.28;;;6.80;83.20;;;;;;5012137;28;20105;-74
2022/04/17 03:34:47;;;;;;;5.00;2.40;;;6.70;82.80;;;;;;5013608;28;20109;-72
2022/04/17 03:37:15;;;;;;;6.75;2.60;;;6.70;84.50;;;;;;5013731;28;20391;-73
2022/04/17 03:39:45;;;;;;;5.30;2.10;;;6.60;84.80;;;;;;5013138;28;20460;-72
2022/04/17 03:42:11;;;;;;;5.22;2.45;;;6.60;84.20;;;;;;5012081;28;20034;-73
2022/04/17 03:44:38;;;;;;;3.70;2.20;;;6.60;84.80;;;;;;5013719;28;20498;-73
2022/04/17 03:47:06;;;;;;;3.92;2.10;;;6.60;84.50;;;;;;5013259;28;20038;-75
2022/04/17 03:49:32;;;;;;;8.20;2.50;;;6.60;84.90;;;;;;5013075;28;20026;-72
2022/04/17 03:52:00;;;;;;;5.53;2.17;;;6.60;85.80;;;;;;5013451;28;20104;-70
2022/04/17 03:54:26;;;;;;;4.53;2.53;;;6.50;84.60;;;;;;5013607;28;20088;-73
2022/04/17 03:56:52;;;;;;;3.47;2.40;;;6.60;85.00;;;;;;5013400;28;20022;-71
2022/04/17 03:59:18;;;;;;;2.65;1.92;;;6.50;84.60;;;;;;5013233;28;20534;-72
2022/04/17 04:01:46;;;;;;;4.50;2.15;;;6.60;84.90;;;;;;5013146;28;20072;-73
2022/04/17 04:04:12;;;;;;;4.55;2.40;;;6.60;84.00;;;;;;5013273;28;20152;-72
2022/04/17 04:06:38;;;;;;;2.53;1.60;;;6.60;84.10;;;;;;5013052;28;20018;-72
2022/04/17 04:09:04;;;;;;;4.07;2.47;;;6.60;84.30;;;;;;5012817;28;20499;-73
2022/04/17 04:11:30;;;;;;;3.55;2.08;;;6.70;84.40;;;;;;5011659;28;20108;-74
2022/04/17 04:13:56;;;;;;;3.75;1.90;;;6.60;84.30;;;;;;5012891;28;20143;-74
2022/04/17 04:16:22;;;;;;;4.18;2.42;;;6.60;83.00;;;;;;5012935;28;20022;-73
2022/04/17 04:18:48;;;;;;;4.78;2.63;;;6.70;84.00;;;;;;5012736;28;20026;-71
2022/04/17 04:21:16;;;;;;;5.75;2.83;;;6.70;83.40;;;;;;5013006;28;20030;-72
2022/04/17 04:23:42;;;;;;;5.65;2.63;;;6.70;83.20;;;;;;5012744;28;20049;-74
2022/04/17 04:26:08;;;;;;;7.60;3.72;;;6.70;82.60;;;;;;5012809;28;20469;-71
2022/04/17 04:28:34;;;;;;;9.57;4.20;;;6.80;83.60;;;;;;5012398;28;20103;-73
2022/04/17 04:31:00;;;;;;;5.45;2.30;;;6.80;83.60;;;;;;5012701;28;20021;-72
2022/04/17 04:33:26;;;;;;;5.15;2.47;;;6.80;85.00;;;;;;5011242;28;20511;-71
2022/04/17 04:35:52;;;;;;;9.55;3.83;;;6.80;86.20;;;;;;5012505;28;20034;-73
2022/04/17 04:38:18;;;;;;;4.65;2.80;;;6.80;88.90;;;;;;5012246;28;20018;-73
2022/04/17 04:40:44;;;;;;;4.57;2.40;;;6.80;90.20;;;;;;5012321;28;20067;-73
2022/04/17 04:43:09;;;;;;;4.22;2.55;;;6.70;90.70;;;;;;5012231;28;20570;-71
2022/04/17 04:49:29;;;;;;;4.35;2.58;;;6.80;91.70;;;;;;5012214;28;20503;-72
2022/04/17 04:51:05;;;;;;;6.13;2.83;;;6.80;91.90;;;;;;5012334;28;20507;-72
2022/04/17 04:53:32;;;;;;;6.85;2.92;;;6.80;92.10;;;;;;5011995;28;20029;-71
2022/04/17 04:55:57;;;;;;;4.07;2.45;;;6.80;92.80;;;;;;5011543;28;20068;-71
2022/04/17 04:58:23;;;;;;;10.00;5.05;;;6.80;92.90;;;;;;5012327;28;20046;-69
2022/04/17 05:00:49;;;;;;;14.77;5.32;;;6.80;94.70;;;;;;5012226;28;20381;-73
2022/04/17 05:03:15;;;;;;;7.82;4.15;;;6.80;94.50;;;;;;5011981;28;20064;-72
2022/04/17 05:05:41;;;;;;;7.05;3.22;;;6.80;94.10;;;;;;5011107;28;20048;-72
2022/04/17 05:08:07;;;;;;;4.25;3.10;;;6.80;94.10;;;;;;5011550;28;20121;-73
2022/04/17 05:10:33;;;;;;;9.40;3.97;;;6.80;94.70;;;;;;5011597;28;20018;-73
2022/04/17 05:12:59;;;;;;;6.60;3.45;;;6.70;93.90;;;;;;5011849;28;20080;-72
2022/04/17 05:15:25;;;;;;;6.68;3.10;;;6.80;93.10;;;;;;5011842;28;20479;-73
2022/04/17 05:17:50;;;;;;;6.30;3.15;;;6.90;93.10;;;;;;5011920;28;20053;-73
2022/04/17 05:20:16;;;;;;;6.95;3.17;;;6.80;92.70;;;;;;5012107;28;20026;-73
2022/04/17 05:22:44;;;;;;;6.63;3.17;;;6.80;92.30;;;;;;5010038;28;20026;-74
2022/04/17 05:25:10;;;;;;;9.20;4.63;;;6.90;92.40;;;;;;5011545;28;20021;-74
2022/04/17 05:27:36;;;;;;;8.77;3.22;;;6.90;91.90;;;;;;5011821;28;20026;-74
2022/04/17 05:30:02;;;;;;;4.80;2.38;;;6.90;91.30;;;;;;5011407;28;20026;-73
2022/04/17 05:32:28;;;;;;;5.05;2.88;;;7.00;91.10;;;;;;5011633;28;20475;-74
2022/04/17 05:34:54;;;;;;;7.78;3.38;;;7.00;91.60;;;;;;5011199;28;20026;-74
2022/04/17 05:37:20;;;;;;;6.53;3.78;;;7.10;91.10;;;;;;5011434;28;20030;-73
2022/04/17 05:39:45;;;;;;;9.98;5.45;;;7.20;92.40;;;;;;5010978;28;20030;-72
2022/04/17 05:42:12;;;;;;;8.45;4.32;;;7.30;90.70;;;;;;5007244;28;20018;-73
2022/04/17 05:44:38;;;;;;;8.52;3.97;;;7.20;88.60;;;;;;5009977;28;20029;-74
2022/04/17 05:47:04;;;;;;;4.18;2.55;;;7.20;90.00;;;;;;5011427;28;20022;-73
2022/04/17 05:49:30;;;;;;;6.75;3.42;;;7.40;88.80;;;;;;5009233;28;20125;-74
2022/04/17 05:51:59;;;;;;;9.18;4.45;;;7.50;89.80;;;;;;5011608;28;20112;-74
2022/04/17 05:54:26;;;;;;;5.57;3.05;;;7.50;86.70;;;;;;5011340;28;20028;-73
2022/04/17 05:56:52;;;;;;;7.35;3.50;;;7.50;88.10;;;;;;5011342;28;20029;-72
2022/04/17 05:59:18;;;;;;;6.57;4.22;;;7.40;87.30;;;;;;5009424;28;20029;-69
2022/04/17 06:01:44;;;;;;;6.65;3.53;;;7.50;85.90;;;;;;5010426;28;20025;-73
2022/04/17 06:04:09;;;;;;;5.35;2.85;;;7.30;84.80;;;;;;5011656;28;20087;-72
2022/04/17 06:06:35;;;;;;;4.38;2.55;;;7.30;85.90;;;;;;5010863;28;20698;-70
2022/04/17 06:09:02;;;;;;;7.07;3.25;;;7.40;88.10;;;;;;5011415;28;20045;-73
2022/04/17 06:11:28;;;;;;;6.10;2.83;;;7.40;85.80;;;;;;5011390;28;20805;-72
2022/04/17 06:13:55;;;;;;;6.53;2.53;;;7.40;86.30;;;;;;5010068;28;20030;-73
2022/04/17 06:16:21;;;;;;;7.80;3.35;;;7.50;84.80;;;;;;5011742;28;20377;-71
2022/04/17 06:18:47;;;;;;;3.70;2.70;;;7.50;85.50;;;;;;5010341;28;20034;-71
2022/04/17 06:21:13;;;;;;;6.20;3.08;;;7.50;83.70;;;;;;5008907;28;20080;-73
2022/04/17 06:23:39;;;;;;;6.25;3.10;;;7.60;83.30;;;;;;5010177;28;20045;-71
2022/04/17 06:26:06;;;;;;;6.82;3.08;;;7.60;84.30;;;;;;5001893;28;20496;-73
2022/04/17 06:28:32;;;;;;;7.40;2.60;;;7.50;81.40;;;;;;5010351;28;20041;-71
2022/04/17 06:30:58;;;;;;;3.95;2.63;;;7.60;82.20;;;;;;4995807;28;20073;-66
2022/04/17 06:33:24;;;;;;;5.28;3.00;;;7.70;82.80;;;;;;4991086;28;20088;-70
2022/04/17 06:35:49;;;;;;;6.57;3.58;;;8.00;81.50;;;;;;4990759;28;20030;-72
2022/04/17 06:38:16;;;;;;;5.50;2.85;;;8.00;81.80;;;;;;4990789;28;20662;-73
2022/04/17 06:40:43;;;;;;;6.22;2.90;;;8.00;81.80;;;;;;4990424;28;20469;-73
2022/04/17 06:43:09;;;;;;;2.90;2.28;;;7.80;79.80;;;;;;4991991;28;20026;-69
2022/04/17 06:45:37;;;;;;;10.77;5.05;;;7.70;80.10;;;;;;4993069;28;20026;-73
2022/04/17 06:48:15;;;;;;;10.00;5.25;;;7.80;79.50;;;;;;4990854;28;20045;-72
2022/04/17 06:50:42;;;;;;;11.63;5.38;;;8.00;79.90;;;;;;4990775;28;20066;-69
2022/04/17 06:53:08;;;;;;;18.77;9.95;;;8.20;79.90;;;;;;4990942;28;20401;-73
2022/04/17 06:55:34;;;;;;;10.80;4.65;;;8.30;77.70;;;;;;4990050;28;20075;-73
2022/04/17 06:58:00;;;;;;;34.28;15.48;;;8.30;76.80;;;;;;4989210;28;20018;-69
2022/04/17 07:00:26;;;;;;;33.33;10.95;;;8.30;77.50;;;;;;4993024;28;20033;-73
2022/04/17 07:02:52;;;;;;;5.95;3.40;;;8.40;77.00;;;;;;4989493;28;20412;-73
2022/04/17 07:05:18;;;;;;;4.90;3.17;;;8.50;79.50;;;;;;4990297;28;20580;-73
2022/04/17 07:07:44;;;;;;;5.38;3.40;;;8.50;78.00;;;;;;4991696;28;20030;-74
2022/04/17 07:10:11;;;;;;;5.53;3.10;;;8.90;79.60;;;;;;4990122;28;20038;-66
2022/04/17 07:12:37;;;;;;;3.97;2.67;;;8.90;76.70;;;;;;4996889;28;20469;-67
2022/04/17 07:15:06;;;;;;;3.63;2.60;;;8.50;76.50;;;;;;4994923;28;20366;-72
2022/04/17 07:17:34;;;;;;;4.38;2.63;;;8.60;75.40;;;;;;4995732;28;20033;-73
2022/04/17 07:20:01;;;;;;;6.60;2.92;;;8.40;74.60;;;;;;5012683;28;20099;-70
2022/04/17 07:22:27;;;;;;;6.30;3.53;;;8.30;75.20;;;;;;5012447;28;20070;-73
2022/04/17 07:24:54;;;;;;;5.57;3.70;;;8.20;75.90;;;;;;5011991;28;20131;-72
2022/04/17 07:27:20;;;;;;;14.85;6.82;;;8.20;75.80;;;;;;5013941;28;20211;-73
2022/04/17 07:29:47;;;;;;;11.10;4.32;;;8.50;77.00;;;;;;5013564;28;20029;-74
2022/04/17 07:32:13;;;;;;;6.93;3.42;;;8.60;74.70;;;;;;5010448;28;20038;-73
2022/04/17 07:34:38;;;;;;;8.95;4.50;;;9.10;78.20;;;;;;5014062;28;20032;-72
2022/04/17 07:37:06;;;;;;;10.18;4.80;;;9.50;74.70;;;;;;5013867;28;20028;-67
2022/04/17 07:39:31;;;;;;;27.15;9.50;;;9.30;73.20;;;;;;5013734;28;20520;-73
2022/04/17 07:41:59;;;;;;;9.18;4.25;;;9.50;74.30;;;;;;5013463;28;20117;-73
2022/04/17 07:44:27;;;;;;;12.60;5.07;;;9.60;71.30;;;;;;5014043;28;20026;-72
2022/04/17 07:46:52;;;;;;;19.55;6.35;;;9.80;71.80;;;;;;5013834;28;20393;-70
2022/04/17 07:49:18;;;;;;;13.82;6.15;;;9.80;72.10;;;;;;5013590;28;20038;-73
2022/04/17 07:51:44;;;;;;;17.95;5.57;;;9.50;69.40;;;;;;5013079;28;20026;-73
2022/04/17 07:54:10;;;;;;;33.55;11.23;;;9.50;69.90;;;;;;5010801;28;20034;-72
2022/04/17 07:56:36;;;;;;;3.75;2.83;;;9.80;73.10;;;;;;5012827;28;20018;-71
2022/04/17 07:59:03;;;;;;;5.80;2.53;;;9.80;71.30;;;;;;5011273;28;20028;-73
2022/04/17 08:01:31;;;;;;;7.85;3.72;;;10.10;71.10;;;;;;5013059;28;20026;-72
2022/04/17 08:03:57;;;;;;;6.15;3.03;;;10.00;69.40;;;;;;5012155;28;20030;-68
2022/04/17 08:06:23;;;;;;;6.63;3.25;;;10.00;68.50;;;;;;5013678;28;20024;-72
2022/04/17 08:08:52;;;;;;;14.55;4.38;;;10.10;68.50;;;;;;5013453;28;20069;-73
2022/04/17 08:11:18;;;;;;;15.45;6.03;;;10.50;70.20;;;;;;5013209;28;20026;-68
2022/04/17 08:13:46;;;;;;;11.38;4.90;;;10.40;67.90;;;;;;5012944;28;20105;-71
2022/04/17 08:16:12;;;;;;;8.25;2.70;;;10.80;70.40;;;;;;5013000;28;20034;-72
2022/04/17 08:18:38;;;;;;;5.60;2.30;;;10.70;68.80;;;;;;5013114;28;20034;-70
2022/04/17 08:21:05;;;;;;;4.28;2.35;;;10.80;67.60;;;;;;5013058;28;20030;-71
2022/04/17 08:23:31;;;;;;;6.40;2.88;;;10.60;64.30;;;;;;4999074;28;20030;-71
2022/04/17 08:25:58;;;;;;;17.42;5.25;;;10.60;66.00;;;;;;4993263;28;20035;-72
2022/04/17 08:28:24;;;;;;;4.55;2.65;;;10.90;68.10;;;;;;4993560;28;20035;-68
2022/04/17 08:30:50;;;;;;;19.45;8.60;;;10.60;64.60;;;;;;4992494;28;20034;-72
2022/04/17 08:33:16;;;;;;;5.25;2.45;;;10.80;66.00;;;;;;4993502;28;20105;-71
2022/04/17 08:35:42;;;;;;;13.02;6.85;;;10.90;64.40;;;;;;4992978;28;20030;-72
2022/04/17 08:38:09;;;;;;;4.88;2.97;;;10.60;65.70;;;;;;4992671;28;20022;-71
2022/04/17 08:40:39;;;;;;;7.30;2.97;;;10.80;64.80;;;;;;4999437;28;20502;-72
2022/04/17 08:43:08;;;;;;;6.63;3.65;;;11.00;65.60;;;;;;5012625;28;20033;-66
2022/04/17 08:45:34;;;;;;;4.40;2.47;;;10.90;64.30;;;;;;5012277;28;20084;-69
2022/04/17 08:48:02;;;;;;;8.52;3.90;;;11.00;64.20;;;;;;5012726;28;20061;-69
2022/04/17 08:50:28;;;;;;;3.72;2.72;;;11.40;66.70;;;;;;5012523;28;20107;-67
2022/04/17 08:52:55;;;;;;;5.28;2.85;;;11.30;65.00;;;;;;5012230;28;20092;-72
2022/04/17 08:55:21;;;;;;;4.78;2.80;;;11.10;63.50;;;;;;5012392;28;20026;-72
2022/04/17 08:57:48;;;;;;;4.70;2.58;;;11.40;65.80;;;;;;5012554;28;20026;-70
2022/04/17 09:00:20;;;;;;;5.10;3.00;;;11.40;63.60;;;;;;5011537;28;20494;-71
2022/04/17 09:02:47;;;;;;;7.80;2.63;;;11.80;66.10;;;;;;5011753;28;20473;-72
2022/04/17 09:05:15;;;;;;;6.22;2.83;;;11.70;63.30;;;;;;5007545;28;20412;-68
2022/04/17 09:07:43;;;;;;;4.70;2.50;;;11.30;62.70;;;;;;5011552;28;20026;-70
2022/04/17 09:10:09;;;;;;;5.20;2.90;;;11.30;63.60;;;;;;5012122;28;20022;-72
2022/04/17 09:12:36;;;;;;;3.45;2.53;;;11.30;64.40;;;;;;5012010;28;20025;-71
2022/04/17 09:15:02;;;;;;;3.83;2.40;;;11.30;64.10;;;;;;5012258;28;20586;-71
2022/04/17 09:17:33;;;;;;;4.30;2.25;;;10.90;63.40;;;;;;5012061;28;20476;-67
2022/04/17 09:20:00;;;;;;;5.75;2.65;;;10.90;63.30;;;;;;5012124;28;20045;-68
2022/04/17 09:22:48;;;;;;;3.38;2.40;;;10.90;63.90;;;;;;5011736;28;20026;-67
2022/04/17 09:25:14;;;;;;;9.23;3.15;;;11.20;62.40;;;;;;5012087;28;20030;-70
2022/04/17 09:27:57;;;;;;;4.10;2.58;;;11.20;62.40;;;;;;5011980;28;20026;-69
2022/04/17 09:30:46;;;;;;;4.55;2.83;;;11.40;63.20;;;;;;5011988;28;20030;-68
2022/04/17 09:33:13;;;;;;;4.85;2.30;;;11.70;64.10;;;;;;5012070;28;20030;-68
2022/04/17 09:35:40;;;;;;;5.75;3.20;;;11.70;62.80;;;;;;5011045;28;20064;-72
2022/04/17 09:38:08;;;;;;;5.25;3.08;;;11.70;62.30;;;;;;5011537;28;20025;-69
2022/04/17 09:40:36;;;;;;;5.93;3.05;;;11.90;64.20;;;;;;5011041;28;20022;-71
2022/04/17 09:43:08;;;;;;;3.28;2.10;;;11.90;62.50;;;;;;5011434;28;20676;-68
2022/04/17 09:45:42;;;;;;;;;;;11.80;61.90;;;;;;5011789;28;20034;-71
2022/04/17 09:48:17;;;;;;;6.88;3.30;;;11.90;60.70;;;;;;5010972;28;19920;-70
2022/04/17 09:50:43;;;;;;;8.90;2.53;;;11.90;62.60;;;;;;5010729;28;20046;-67
2022/04/17 09:53:09;;;;;;;8.57;3.22;;;11.60;61.50;;;;;;5011499;28;20087;-70
2022/04/17 09:55:39;;;;;;;8.60;3.88;;;12.00;63.40;;;;;;5011325;28;20026;-67
2022/04/17 09:58:05;;;;;;;7.32;3.53;;;12.20;63.40;;;;;;5010733;28;20040;-70
2022/04/17 10:00:41;;;;;;;2.78;2.20;;;12.20;61.00;;;;;;5011171;28;20021;-70
2022/04/17 10:03:08;;;;;;;3.05;2.10;;;12.10;60.60;;;;;;5011648;28;20380;-68
2022/04/17 10:05:35;;;;;;;3.30;1.92;;;12.20;61.20;;;;;;5011656;28;20045;-69
2022/04/17 10:08:01;;;;;;;9.75;3.58;;;11.80;59.40;;;;;;5011480;28;20112;-71
2022/04/17 10:10:27;;;;;;;7.03;3.53;;;12.10;62.50;;;;;;5011676;28;20029;-71
2022/04/17 10:12:54;;;;;;;6.63;3.63;;;12.30;60.40;;;;;;5011269;28;20037;-68
2022/04/17 10:15:20;;;;;;;7.03;3.33;;;12.30;61.10;;;;;;5011495;28;20044;-69
2022/04/17 10:17:47;;;;;;;5.45;2.15;;;12.10;58.80;;;;;;5011587;28;20525;-70
2022/04/17 10:20:14;;;;;;;8.90;3.22;;;12.10;59.10;;;;;;5011477;28;20029;-69
2022/04/17 10:22:48;;;;;;;6.07;2.80;;;12.40;60.60;;;;;;5011220;28;20034;-71
2022/04/17 10:25:18;;;;;;;6.18;3.08;;;12.20;59.20;;;;;;5011340;28;20306;-68
2022/04/17 10:28:04;;;;;;;6.25;2.97;;;12.10;58.90;;;;;;5011238;28;20080;-71
2022/04/17 10:30:52;;;;;;;7.63;3.63;;;12.10;59.70;;;;;;5011453;28;20030;-69
2022/04/17 10:33:38;;;;;;;5.72;3.05;;;12.40;59.30;;;;;;5011276;28;20080;-66
2022/04/17 10:36:34;;;;;;;6.95;3.03;;;12.60;59.40;;;;;;5011066;28;20392;-71
2022/04/17 10:39:16;;;;;;;5.50;2.97;;;12.70;63.00;;;;;;5011027;28;20117;-71
2022/04/17 10:41:42;;;;;;;5.15;2.85;;;12.80;60.00;;;;;;5010637;28;20439;-72
2022/04/17 10:44:12;;;;;;;5.70;2.35;;;12.60;57.60;;;;;;5011557;28;20052;-71
2022/04/17 10:46:49;;;;;;;9.05;2.70;;;12.50;57.50;;;;;;5010517;28;20030;-71
2022/04/17 10:49:27;;;;;;;4.07;2.50;;;12.40;57.10;;;;;;5010725;28;20120;-69
2022/04/17 10:51:57;;;;;;;3.20;2.00;;;12.50;56.80;;;;;;5010727;28;20396;-69
2022/04/17 10:54:24;;;;;;;7.72;2.38;;;12.30;54.90;;;;;;5014164;28;20026;-70
2022/04/17 10:56:56;;;;;;;7.38;2.95;;;12.60;57.40;;;;;;5014912;28;20030;-71
2022/04/17 10:59:27;;;;;;;4.97;2.58;;;12.60;55.80;;;;;;5014901;28;20030;-72
2022/04/17 11:02:10;;;;;;;3.88;2.20;;;12.60;56.10;;;;;;5014812;28;20037;-72
2022/04/17 11:04:55;;;;;;;4.57;2.45;;;12.70;57.90;;;;;;5014776;28;20062;-71
2022/04/17 11:07:27;;;;;;;7.28;2.22;;;12.50;56.10;;;;;;5014845;28;20032;-71
2022/04/17 11:10:16;;;;;;;3.50;2.27;;;12.70;56.10;;;;;;5014729;28;20480;-72
2022/04/17 11:12:56;;;;;;;4.80;2.28;;;12.70;57.30;;;;;;5014509;28;20029;-70
2022/04/17 11:15:25;;;;;;;5.85;2.53;;;12.60;56.30;;;;;;5014970;28;20109;-71
2022/04/17 11:17:51;;;;;;;11.00;2.67;;;12.70;55.60;;;;;;5014869;28;20109;-67
2022/04/17 11:20:18;;;;;;;4.88;2.13;;;12.80;56.40;;;;;;5014510;28;20057;-72
2022/04/17 11:22:44;;;;;;;4.72;2.50;;;12.50;53.60;;;;;;5014181;28;20022;-69
2022/04/17 11:25:12;;;;;;;4.35;2.22;;;12.70;56.00;;;;;;5014756;28;20080;-71
2022/04/17 11:27:48;;;;;;;6.65;2.30;;;12.90;57.20;;;;;;5014610;28;20022;-69
2022/04/17 11:30:14;;;;;;;7.28;2.28;;;13.00;55.80;;;;;;5014573;28;20057;-71
2022/04/17 11:32:39;;;;;;;4.28;2.33;;;13.10;55.60;;;;;;5014625;28;20412;-68
2022/04/17 11:35:07;;;;;;;4.13;2.45;;;13.10;57.20;;;;;;5014255;28;20535;-71
2022/04/17 11:37:33;;;;;;;7.82;2.75;;;13.10;56.60;;;;;;5013819;28;20109;-69
2022/04/17 11:40:12;;;;;;;6.70;2.92;;;13.30;57.50;;;;;;5014354;28;20060;-71
2022/04/17 11:42:42;;;;;;;6.97;2.92;;;13.30;57.00;;;;;;5013754;28;20496;-72
2022/04/17 11:45:09;;;;;;;4.82;2.40;;;13.20;56.40;;;;;;5013744;28;20079;-71
2022/04/17 11:47:48;;;;;;;4.45;2.85;;;13.10;55.50;;;;;;5013537;28;20037;-72
2022/04/17 11:50:20;;;;;;;5.80;2.10;;;13.00;56.80;;;;;;5013012;28;20053;-71
2022/04/17 11:52:54;;;;;;;6.47;3.70;;;12.90;55.90;;;;;;5013001;28;20033;-70
2022/04/17 11:55:24;;;;;;;5.10;2.97;;;13.20;55.70;;;;;;5013396;28;20032;-68
2022/04/17 11:57:51;;;;;;;5.45;2.40;;;13.20;55.90;;;;;;5012844;28;20619;-70
2022/04/17 12:00:16;;;;;;;5.20;1.80;;;13.20;55.60;;;;;;5012900;28;20520;-72
2022/04/17 12:02:42;;;;;;;5.38;2.13;;;13.30;56.00;;;;;;5012827;28;20037;-71
2022/04/17 12:05:10;;;;;;;4.72;2.60;;;13.20;55.20;;;;;;5011409;28;20473;-69
2022/04/17 12:07:36;;;;;;;7.35;2.58;;;13.20;55.90;;;;;;5012228;28;20029;-72
2022/04/17 12:10:10;;;;;;;9.93;2.70;;;13.20;55.00;;;;;;5012666;28;20076;-71
2022/04/17 12:12:42;;;;;;;2.90;1.88;;;13.20;53.90;;;;;;5012395;28;20664;-71
2022/04/17 12:15:15;;;;;;;4.07;2.17;;;13.40;56.60;;;;;;5012640;28;20105;-72
2022/04/17 12:17:42;;;;;;;5.07;2.00;;;13.50;55.70;;;;;;5010859;28;20564;-72
2022/04/17 12:20:09;;;;;;;6.15;2.05;;;13.40;53.90;;;;;;5012252;28;20056;-72
2022/04/17 12:22:38;;;;;;;6.50;2.40;;;13.40;54.80;;;;;;5011882;28;20030;-71
2022/04/17 12:25:13;;;;;;;7.50;2.92;;;13.40;54.90;;;;;;5012102;28;20022;-71
2022/04/17 12:27:39;;;;;;;4.55;2.38;;;13.40;55.00;;;;;;5010321;28;20380;-68
2022/04/17 12:30:06;;;;;;;4.30;1.85;;;13.50;54.40;;;;;;5012002;28;20022;-72
2022/04/17 12:32:32;;;;;;;3.03;2.30;;;13.40;54.70;;;;;;5012591;28;20156;-71
2022/04/17 12:34:59;;;;;;;4.82;2.42;;;13.30;53.40;;;;;;5012280;28;20118;-72
2022/04/17 12:37:29;;;;;;;3.22;2.30;;;13.40;55.20;;;;;;5010358;28;20022;-71
2022/04/17 12:40:12;;;;;;;7.45;2.35;;;13.70;57.00;;;;;;5010301;28;20042;-69
2022/04/17 12:42:40;;;;;;;5.18;2.15;;;13.60;54.70;;;;;;5011713;28;20034;-70
2022/04/17 12:45:07;;;;;;;6.05;2.72;;;13.50;54.00;;;;;;5012310;28;20474;-71
2022/04/17 12:47:36;;;;;;;4.20;2.63;;;13.50;54.50;;;;;;5012234;28;20476;-72
2022/04/17 12:50:06;;;;;;;9.82;3.20;;;13.30;55.40;;;;;;5011984;28;20392;-71
2022/04/17 12:52:32;;;;;;;6.25;2.95;;;13.30;54.20;;;;;;5011914;28;20167;-70
2022/04/17 12:55:09;;;;;;;8.35;3.30;;;13.30;54.60;;;;;;5012305;28;20488;-71
2022/04/17 12:57:35;;;;;;;6.70;2.45;;;13.30;56.00;;;;;;5011432;28;20389;-70
2022/04/17 13:00:02;;;;;;;8.20;2.83;;;13.40;55.70;;;;;;5012282;28;20028;-70
2022/04/17 13:02:29;;;;;;;5.82;2.22;;;13.40;54.80;;;;;;5012235;28;20030;-70
2022/04/17 13:04:57;;;;;;;5.93;2.38;;;13.40;54.30;;;;;;5010007;28;20021;-68
2022/04/17 13:07:30;;;;;;;3.13;1.70;;;13.10;54.00;;;;;;5010519;28;20018;-70